Time;durP1;ratioP1;P1;durP2;ratioP2;P2;SDS_P1;SDS_P2;PMS_P1;PMS_P2;Temp;Humidity;BMP_temperature;BMP_pressure;BME280_temperature;BME280_humidity;BME280_pressure;Samples;Min_cycle;Max_cycle;Signal;HPM_P1;HPM_P2
2022/09/27 00:00:48;;;;;;;62.20;26.63;;;10.90;99.90;;;;;;4998172;28;20319;-50
2022/09/27 00:03:16;;;;;;;32.17;29.20;;;10.90;99.90;;;;;;5011098;28;20225;-51
2022/09/27 00:05:44;;;;;;;48.33;19.47;;;10.90;99.90;;;;;;5012033;28;20252;-50
2022/09/27 00:08:13;;;;;;;10.00;6.23;;;10.90;99.90;;;;;;5011637;28;20211;-50
2022/09/27 00:10:41;;;;;;;9.87;7.40;;;11.00;99.90;;;;;;5011764;28;20318;-50
2022/09/27 00:13:09;;;;;;;4.30;3.90;;;11.00;99.90;;;;;;5011337;28;20294;-49
2022/09/27 00:15:39;;;;;;;6.97;5.93;;;11.00;99.90;;;;;;5012274;28;20306;-49
2022/09/27 00:18:08;;;;;;;25.47;17.73;;;11.00;99.90;;;;;;5011618;28;20213;-51
2022/09/27 00:20:36;;;;;;;8.70;7.43;;;11.00;99.90;;;;;;5011569;28;20231;-50
2022/09/27 00:23:03;;;;;;;6.73;5.77;;;11.00;99.90;;;;;;5014033;28;20214;-50
2022/09/27 00:25:31;;;;;;;17.53;13.23;;;11.00;99.90;;;;;;5012064;28;20209;-50
2022/09/27 00:27:59;;;;;;;42.33;24.07;;;11.10;99.90;;;;;;5011558;28;20207;-50
2022/09/27 00:30:28;;;;;;;13.03;10.23;;;11.10;99.90;;;;;;5011571;28;20723;-50
2022/09/27 00:32:57;;;;;;;6.80;6.10;;;11.00;99.90;;;;;;5011361;28;20294;-50
2022/09/27 00:35:25;;;;;;;21.23;15.73;;;11.00;99.90;;;;;;5011392;28;21102;-50
2022/09/27 00:37:53;;;;;;;23.70;16.83;;;11.00;99.90;;;;;;5011323;28;20687;-50
2022/09/27 00:40:23;;;;;;;17.33;15.50;;;11.00;99.90;;;;;;5011699;28;20623;-50
2022/09/27 00:42:51;;;;;;;21.83;13.97;;;11.00;99.90;;;;;;5011170;28;20239;-49
2022/09/27 00:45:19;;;;;;;31.47;23.50;;;11.10;99.90;;;;;;5011203;28;20293;-50
2022/09/27 00:47:52;;;;;;;20.00;13.63;;;11.10;99.90;;;;;;5010239;28;20668;-50
2022/09/27 00:50:28;;;;;;;43.33;38.93;;;11.10;99.90;;;;;;5011476;28;20317;-49
2022/09/27 00:53:06;;;;;;;5.00;4.27;;;11.10;99.90;;;;;;5009962;28;20241;-50
2022/09/27 00:55:40;;;;;;;7.13;4.60;;;11.10;99.90;;;;;;5011029;28;20203;-50
2022/09/27 00:58:10;;;;;;;23.90;16.30;;;11.10;99.90;;;;;;5009918;28;20233;-50
2022/09/27 01:00:44;;;;;;;5.93;4.67;;;11.10;99.90;;;;;;5011012;28;20233;-50
2022/09/27 01:03:15;;;;;;;22.93;16.70;;;11.10;99.90;;;;;;5010668;28;20218;-50
2022/09/27 01:05:44;;;;;;;17.77;12.37;;;11.00;99.90;;;;;;5011091;28;20211;-50
2022/09/27 01:08:12;;;;;;;8.07;6.43;;;11.00;99.90;;;;;;5010380;28;20203;-50
2022/09/27 01:10:52;;;;;;;51.23;35.90;;;11.00;99.90;;;;;;5009891;28;20689;-50
2022/09/27 01:13:25;;;;;;;23.50;13.37;;;11.00;99.90;;;;;;5009869;28;20666;-50
2022/09/27 01:16:00;;;;;;;9.93;7.17;;;11.00;99.90;;;;;;5011021;28;20290;-50
2022/09/27 01:18:34;;;;;;;12.73;7.43;;;11.00;99.90;;;;;;5010456;28;20313;-50
2022/09/27 01:21:17;;;;;;;12.50;8.73;;;11.00;99.90;;;;;;5010294;28;20733;-51
2022/09/27 01:24:06;;;;;;;9.53;6.50;;;10.90;99.90;;;;;;5009944;28;20211;-50
2022/09/27 01:26:53;;;;;;;28.73;21.30;;;10.90;99.90;;;;;;5010610;28;20217;-49
2022/09/27 01:29:35;;;;;;;9.63;6.57;;;10.90;99.90;;;;;;5010352;28;20206;-51
2022/09/27 01:32:08;;;;;;;74.50;31.07;;;10.90;99.90;;;;;;5010111;28;20230;-50
2022/09/27 01:34:45;;;;;;;16.77;15.10;;;10.90;99.90;;;;;;5010358;28;20211;-51
2022/09/27 01:37:21;;;;;;;12.70;6.73;;;10.90;99.90;;;;;;5009795;28;20322;-50
2022/09/27 01:39:53;;;;;;;32.40;28.43;;;10.90;99.90;;;;;;5009629;28;20302;-50
2022/09/27 01:42:25;;;;;;;12.90;8.87;;;10.90;99.90;;;;;;5009605;28;20297;-50
2022/09/27 01:45:00;;;;;;;34.23;21.40;;;10.90;99.90;;;;;;5010257;28;20294;-50
2022/09/27 01:47:35;;;;;;;29.97;17.87;;;10.90;99.90;;;;;;5009894;28;20301;-50
2022/09/27 01:50:07;;;;;;;6.83;4.37;;;10.90;99.90;;;;;;5009869;28;20310;-50
2022/09/27 01:52:39;;;;;;;12.80;8.93;;;10.90;99.90;;;;;;5009312;28;20841;-50
2022/09/27 01:55:10;;;;;;;44.90;31.93;;;10.90;99.90;;;;;;5009213;28;20207;-50
2022/09/27 01:57:42;;;;;;;14.30;9.80;;;10.90;99.90;;;;;;5009517;28;21044;-50
2022/09/27 02:00:12;;;;;;;17.97;11.60;;;10.90;99.90;;;;;;5011016;28;20254;-50
2022/09/27 02:02:47;;;;;;;13.60;9.13;;;10.90;99.90;;;;;;5009275;28;20253;-50
2022/09/27 02:05:17;;;;;;;17.20;10.10;;;10.90;99.90;;;;;;5009615;28;20206;-50
2022/09/27 02:07:51;;;;;;;10.17;6.77;;;10.90;99.90;;;;;;5009604;28;20294;-50
2022/09/27 02:10:23;;;;;;;21.43;14.10;;;10.90;99.90;;;;;;5009555;28;20794;-50
2022/09/27 02:12:56;;;;;;;25.90;16.10;;;10.90;99.90;;;;;;5008951;28;20747;-50
2022/09/27 02:15:26;;;;;;;20.93;14.40;;;10.90;99.90;;;;;;5009813;28;20298;-50
2022/09/27 02:18:01;;;;;;;7.63;4.90;;;10.80;99.90;;;;;;5009621;28;20314;-51
2022/09/27 02:20:33;;;;;;;12.30;10.67;;;10.90;99.90;;;;;;5009714;28;20227;-50
2022/09/27 02:23:10;;;;;;;8.60;4.50;;;10.90;99.90;;;;;;5009143;28;20203;-50
2022/09/27 02:25:44;;;;;;;10.27;7.73;;;10.90;99.90;;;;;;5009330;28;20306;-50
2022/09/27 02:28:25;;;;;;;13.07;6.13;;;10.90;99.90;;;;;;5009284;28;20697;-50
2022/09/27 02:30:54;;;;;;;30.27;19.03;;;10.90;99.90;;;;;;5009307;28;20776;-51
2022/09/27 02:33:30;;;;;;;24.67;21.83;;;10.90;99.90;;;;;;5009221;28;20669;-50
2022/09/27 02:35:58;;;;;;;6.37;5.43;;;10.80;99.90;;;;;;5008768;28;20211;-50
2022/09/27 02:38:26;;;;;;;7.70;3.97;;;10.90;99.90;;;;;;5006849;28;20333;-51
2022/09/27 02:40:54;;;;;;;16.53;9.17;;;10.90;99.90;;;;;;5009302;28;20719;-50
2022/09/27 02:43:25;;;;;;;9.90;7.43;;;10.80;99.90;;;;;;5008317;28;20273;-50
2022/09/27 02:46:08;;;;;;;6.60;4.10;;;10.80;99.90;;;;;;5009430;28;20213;-50
2022/09/27 02:48:48;;;;;;;5.73;3.67;;;10.80;99.90;;;;;;5009117;28;20203;-50
2022/09/27 02:51:34;;;;;;;6.77;3.93;;;10.90;99.90;;;;;;5009404;28;20244;-50
2022/09/27 02:54:13;;;;;;;12.07;6.40;;;10.90;99.90;;;;;;5008661;28;20215;-50
2022/09/27 02:56:49;;;;;;;6.20;4.37;;;10.80;99.90;;;;;;5009768;28;20217;-49
2022/09/27 02:59:27;;;;;;;6.00;3.53;;;10.80;99.90;;;;;;5009217;28;20365;-50
2022/09/27 03:02:06;;;;;;;8.13;4.40;;;10.90;99.90;;;;;;5012250;28;20313;-51
2022/09/27 03:04:47;;;;;;;17.50;11.13;;;10.90;99.90;;;;;;5013159;28;20199;-51
2022/09/27 03:07:16;;;;;;;6.23;3.07;;;10.90;99.90;;;;;;5012678;28;20824;-50
2022/09/27 03:09:46;;;;;;;4.17;3.60;;;10.80;99.90;;;;;;5012775;28;20302;-51
2022/09/27 03:12:19;;;;;;;30.80;17.07;;;10.80;99.90;;;;;;5012104;28;20684;-50
2022/09/27 03:14:47;;;;;;;6.13;5.63;;;10.80;99.90;;;;;;5011135;28;20207;-50
2022/09/27 03:17:16;;;;;;;9.50;5.23;;;10.80;99.90;;;;;;5012551;28;20289;-50
2022/09/27 03:19:48;;;;;;;4.97;2.50;;;10.80;99.90;;;;;;5012555;28;20206;-50
2022/09/27 03:22:16;;;;;;;3.30;2.50;;;10.80;99.90;;;;;;5012081;28;20306;-50
2022/09/27 03:24:44;;;;;;;9.20;6.07;;;10.80;99.90;;;;;;5012886;28;20234;-50
2022/09/27 03:27:12;;;;;;;13.70;8.03;;;10.80;99.90;;;;;;5012411;28;20210;-50
2022/09/27 03:29:40;;;;;;;4.40;2.40;;;10.80;99.90;;;;;;5012748;28;20289;-50
2022/09/27 03:32:09;;;;;;;12.60;9.47;;;10.80;99.90;;;;;;5012290;28;20241;-50
2022/09/27 03:34:37;;;;;;;14.07;9.13;;;10.80;99.90;;;;;;5012040;28;20302;-51
2022/09/27 03:37:07;;;;;;;3.00;2.37;;;10.80;99.90;;;;;;5001753;28;20217;-52
2022/09/27 03:39:35;;;;;;;3.63;2.10;;;10.80;99.90;;;;;;5011931;28;20321;-50
2022/09/27 03:42:03;;;;;;;11.20;8.70;;;10.70;99.90;;;;;;5009440;28;20251;-50
2022/09/27 03:44:31;;;;;;;8.37;5.27;;;10.70;99.90;;;;;;5011766;28;20239;-51
2022/09/27 03:46:59;;;;;;;6.80;4.27;;;10.70;99.90;;;;;;5011970;28;20290;-50
2022/09/27 03:49:28;;;;;;;4.33;4.00;;;10.70;99.90;;;;;;5012020;28;20206;-51
2022/09/27 03:51:56;;;;;;;2.20;1.50;;;10.70;99.90;;;;;;5011756;28;20323;-50
2022/09/27 03:54:25;;;;;;;24.97;19.87;;;10.70;99.90;;;;;;5012421;28;20245;-50
2022/09/27 03:56:53;;;;;;;3.37;3.17;;;10.70;99.90;;;;;;5011800;28;20209;-50
2022/09/27 03:59:21;;;;;;;5.07;3.43;;;10.70;99.90;;;;;;5011633;28;20313;-49
2022/09/27 04:01:49;;;;;;;3.33;1.87;;;10.70;99.90;;;;;;5011837;28;20680;-50
2022/09/27 04:04:17;;;;;;;3.30;1.63;;;10.70;99.90;;;;;;5011986;28;20210;-50
2022/09/27 04:06:45;;;;;;;2.27;1.70;;;10.70;99.90;;;;;;5011663;28;20745;-50
2022/09/27 04:09:13;;;;;;;9.03;8.20;;;10.80;99.90;;;;;;5011672;28;20217;-50
2022/09/27 04:11:43;;;;;;;10.33;6.43;;;10.70;99.90;;;;;;5011010;28;20242;-50
2022/09/27 04:14:11;;;;;;;2.20;1.63;;;10.70;99.90;;;;;;5011272;28;20218;-50
2022/09/27 04:16:40;;;;;;;5.90;4.40;;;10.70;99.90;;;;;;5011980;28;20215;-50
2022/09/27 04:19:09;;;;;;;2.60;1.53;;;10.70;99.90;;;;;;5011339;28;20284;-50
2022/09/27 04:21:37;;;;;;;8.70;4.30;;;10.70;99.90;;;;;;5011299;28;20227;-50
2022/09/27 04:24:05;;;;;;;1.77;0.93;;;10.70;99.90;;;;;;5010960;28;20302;-50
2022/09/27 04:26:33;;;;;;;3.67;3.37;;;10.60;99.90;;;;;;5011503;28;20298;-50
2022/09/27 04:29:03;;;;;;;12.87;7.17;;;10.70;99.90;;;;;;5010689;28;20298;-50
2022/09/27 04:31:32;;;;;;;2.00;1.00;;;10.70;99.90;;;;;;5011424;28;20313;-50
2022/09/27 04:34:00;;;;;;;36.97;24.87;;;10.70;99.90;;;;;;5010840;28;20657;-50
2022/09/27 04:36:27;;;;;;;3.83;3.00;;;10.60;99.90;;;;;;5011683;28;20286;-51
2022/09/27 04:38:56;;;;;;;6.33;5.07;;;10.60;99.90;;;;;;5011326;28;20317;-50
2022/09/27 04:41:25;;;;;;;3.70;1.07;;;10.60;99.90;;;;;;5011469;28;20266;-50
2022/09/27 04:43:53;;;;;;;1.83;0.90;;;10.60;99.90;;;;;;5010571;28;20210;-50
2022/09/27 04:46:30;;;;;;;1.07;0.97;;;10.60;99.90;;;;;;5011344;28;20261;-50
2022/09/27 04:48:59;;;;;;;39.53;25.90;;;10.60;99.90;;;;;;5011375;28;20217;-50
2022/09/27 04:51:27;;;;;;;0.87;0.87;;;10.60;99.90;;;;;;5010819;28;20629;-50
2022/09/27 04:53:56;;;;;;;1.00;0.90;;;10.60;99.90;;;;;;5010854;28;20309;-51
2022/09/27 04:56:24;;;;;;;3.37;2.50;;;10.60;99.90;;;;;;5011278;28;20290;-50
2022/09/27 04:58:52;;;;;;;5.07;3.47;;;10.50;99.90;;;;;;5010952;28;20249;-51
2022/09/27 05:01:21;;;;;;;10.73;6.53;;;10.50;99.90;;;;;;5011329;28;20317;-50
2022/09/27 05:03:51;;;;;;;8.20;5.93;;;10.50;99.90;;;;;;5010564;28;20221;-51
2022/09/27 05:06:19;;;;;;;5.50;5.13;;;10.50;99.90;;;;;;5010827;28;20672;-51
2022/09/27 05:08:47;;;;;;;5.27;3.00;;;10.50;99.90;;;;;;5010918;28;20230;-51
2022/09/27 05:11:15;;;;;;;25.03;16.70;;;10.50;99.90;;;;;;5010664;28;20350;-50
2022/09/27 05:13:43;;;;;;;2.57;1.20;;;10.40;99.90;;;;;;5022201;28;20206;-51
2022/09/27 05:16:11;;;;;;;12.30;10.20;;;10.50;99.90;;;;;;5011461;28;20241;-49
2022/09/27 05:18:40;;;;;;;26.07;13.27;;;10.40;99.90;;;;;;5010516;28;20281;-51
2022/09/27 05:21:10;;;;;;;3.17;2.47;;;10.50;99.90;;;;;;5010161;28;20708;-51
2022/09/27 05:23:38;;;;;;;3.53;3.23;;;10.40;99.90;;;;;;5008732;28;20286;-51
2022/09/27 05:26:07;;;;;;;2.43;1.73;;;10.50;99.90;;;;;;5010482;28;20211;-51
2022/09/27 05:28:35;;;;;;;19.50;15.93;;;10.50;99.90;;;;;;5010226;28;20740;-50
2022/09/27 05:31:03;;;;;;;29.17;21.73;;;10.50;99.90;;;;;;5010324;28;20317;-51
2022/09/27 05:33:33;;;;;;;3.97;1.60;;;10.50;99.90;;;;;;5010228;28;20203;-50
2022/09/27 05:36:02;;;;;;;19.57;15.10;;;10.50;99.90;;;;;;5009922;28;20253;-51
2022/09/27 05:38:31;;;;;;;14.33;12.93;;;10.50;99.90;;;;;;5010717;28;20219;-51
2022/09/27 05:41:00;;;;;;;4.57;2.40;;;10.50;99.90;;;;;;5008981;28;20237;-50
2022/09/27 05:43:28;;;;;;;3.13;2.83;;;10.50;99.90;;;;;;5009499;28;20227;-50
2022/09/27 05:45:56;;;;;;;2.73;2.53;;;10.50;99.90;;;;;;5009910;28;20298;-51
2022/09/27 05:48:24;;;;;;;2.57;2.37;;;10.50;99.90;;;;;;5010161;28;20202;-49
2022/09/27 05:50:52;;;;;;;3.07;2.40;;;10.50;99.90;;;;;;5010146;28;20221;-51
2022/09/27 05:53:20;;;;;;;3.40;3.07;;;10.50;99.90;;;;;;5009093;28;20237;-51
2022/09/27 05:55:49;;;;;;;6.47;3.93;;;10.50;99.90;;;;;;5010010;28;20206;-50
2022/09/27 05:58:17;;;;;;;21.23;10.57;;;10.50;99.90;;;;;;5009328;28;20211;-50
2022/09/27 06:00:46;;;;;;;5.83;3.83;;;10.50;99.90;;;;;;5009492;28;20231;-50
2022/09/27 06:03:14;;;;;;;3.70;3.17;;;10.50;99.90;;;;;;5009203;28;20218;-50
2022/09/27 06:05:42;;;;;;;9.10;5.80;;;10.50;99.90;;;;;;5009256;28;20710;-51
2022/09/27 06:08:15;;;;;;;13.37;9.03;;;10.50;99.90;;;;;;5009740;28;20261;-51
2022/09/27 06:10:43;;;;;;;5.00;3.37;;;10.50;99.90;;;;;;5009167;28;20642;-49
2022/09/27 06:13:14;;;;;;;3.93;3.20;;;10.50;99.90;;;;;;5009255;28;20642;-51
2022/09/27 06:15:44;;;;;;;4.33;3.80;;;10.60;99.90;;;;;;5009834;28;20298;-50
2022/09/27 06:18:15;;;;;;;54.30;27.20;;;10.60;99.90;;;;;;5009697;28;20301;-51
2022/09/27 06:20:43;;;;;;;14.13;6.60;;;10.50;99.90;;;;;;5009125;28;20674;-51
2022/09/27 06:23:13;;;;;;;6.07;5.50;;;10.60;99.90;;;;;;5008992;28;20213;-50
2022/09/27 06:25:41;;;;;;;16.23;10.23;;;10.60;99.90;;;;;;5009769;28;21004;-51
2022/09/27 06:28:10;;;;;;;7.17;4.53;;;10.60;99.90;;;;;;5009032;28;20207;-50
2022/09/27 06:30:41;;;;;;;8.63;7.27;;;10.60;99.90;;;;;;5009420;28;20318;-50
2022/09/27 06:33:12;;;;;;;6.73;5.53;;;10.60;99.90;;;;;;5007592;28;20207;-51
2022/09/27 06:35:40;;;;;;;15.00;10.33;;;10.60;99.90;;;;;;5012697;28;20671;-51
2022/09/27 06:38:11;;;;;;;3.90;3.50;;;10.70;99.90;;;;;;5012601;28;20213;-51
2022/09/27 06:40:39;;;;;;;5.10;3.40;;;10.70;99.90;;;;;;5013088;28;20317;-51
2022/09/27 06:43:09;;;;;;;11.97;9.30;;;10.70;99.90;;;;;;5012410;28;20695;-51
2022/09/27 06:45:39;;;;;;;4.40;4.00;;;10.70;99.90;;;;;;5012963;28;20692;-51
2022/09/27 06:48:09;;;;;;;8.00;4.50;;;10.70;99.90;;;;;;5013503;28;20585;-49
2022/09/27 06:50:39;;;;;;;5.97;5.37;;;10.80;99.90;;;;;;5021673;28;20666;-51
2022/09/27 06:53:09;;;;;;;4.00;2.73;;;10.90;99.90;;;;;;5012089;28;20298;-51
2022/09/27 06:55:38;;;;;;;21.23;14.00;;;10.90;99.90;;;;;;5007499;28;20203;-50
2022/09/27 07:00:53;;;;;;;5.00;4.60;;;11.10;99.90;;;;;;5011643;28;20234;-51
2022/09/27 07:03:31;;;;;;;6.47;4.43;;;11.10;99.90;;;;;;5012968;28;20223;-51
2022/09/27 07:06:05;;;;;;;5.60;4.40;;;11.10;99.90;;;;;;5012290;28;20751;-50
2022/09/27 07:08:34;;;;;;;13.37;8.33;;;11.20;99.90;;;;;;5012898;28;20242;-51
2022/09/27 07:11:04;;;;;;;15.40;8.53;;;11.30;99.90;;;;;;5012308;28;20241;-51
2022/09/27 07:13:35;;;;;;;24.40;12.63;;;11.30;99.90;;;;;;5012068;28;20298;-50
2022/09/27 07:16:05;;;;;;;15.80;13.67;;;11.30;99.90;;;;;;5012050;28;20203;-51
2022/09/27 07:18:33;;;;;;;13.13;11.93;;;11.30;99.90;;;;;;5012613;28;20211;-50
2022/09/27 07:21:01;;;;;;;7.87;5.37;;;11.30;99.90;;;;;;5012296;28;20321;-50
2022/09/27 07:23:29;;;;;;;10.37;9.40;;;11.30;99.90;;;;;;5012073;28;20298;-50
2022/09/27 07:26:03;;;;;;;17.80;10.47;;;11.40;99.90;;;;;;5012756;28;20575;-50
2022/09/27 07:28:31;;;;;;;10.63;9.70;;;11.30;99.90;;;;;;5012347;28;20974;-51
2022/09/27 07:30:59;;;;;;;14.67;6.57;;;11.40;99.90;;;;;;5012548;28;20337;-50
2022/09/27 07:33:29;;;;;;;60.43;38.60;;;11.40;99.90;;;;;;5011539;28;20230;-50
2022/09/27 07:35:57;;;;;;;10.97;8.43;;;11.40;99.90;;;;;;5012457;28;20779;-51
2022/09/27 07:38:25;;;;;;;11.20;8.60;;;11.40;99.90;;;;;;5012054;28;20293;-51
2022/09/27 07:40:53;;;;;;;24.87;22.00;;;11.40;99.90;;;;;;5012156;28;20239;-51
2022/09/27 07:43:21;;;;;;;28.43;25.43;;;11.40;99.90;;;;;;5010008;28;20665;-50
2022/09/27 07:45:49;;;;;;;8.53;5.83;;;11.40;99.90;;;;;;5010718;28;20210;-51
2022/09/27 07:48:17;;;;;;;13.77;10.13;;;11.50;99.90;;;;;;5004412;28;20261;-51
2022/09/27 07:50:47;;;;;;;3.80;3.40;;;11.60;99.90;;;;;;5010704;28;20309;-51
2022/09/27 07:53:15;;;;;;;32.67;22.43;;;11.60;99.90;;;;;;5011038;28;20242;-50
2022/09/27 07:55:43;;;;;;;18.73;15.43;;;11.80;99.90;;;;;;5011848;28;20199;-51
2022/09/27 07:58:12;;;;;;;31.57;17.37;;;11.80;99.90;;;;;;5011627;28;20294;-50
2022/09/27 08:00:40;;;;;;;35.37;30.37;;;12.00;99.90;;;;;;5010920;28;20277;-50
2022/09/27 08:03:13;;;;;;;73.10;66.47;;;12.30;99.90;;;;;;5011268;28;20656;-51
2022/09/27 08:05:41;;;;;;;72.00;43.60;;;12.40;99.90;;;;;;5011032;28;20207;-51
2022/09/27 08:08:11;;;;;;;17.53;14.20;;;12.60;99.90;;;;;;5010990;28;20294;-51
2022/09/27 08:10:42;;;;;;;80.00;41.00;;;12.60;99.90;;;;;;5011427;28;20226;-51
2022/09/27 08:13:12;;;;;;;83.93;57.93;;;12.60;99.90;;;;;;5011083;28;20207;-50
2022/09/27 08:15:40;;;;;;;121.20;71.73;;;12.60;99.90;;;;;;5011140;28;20293;-51
2022/09/27 08:18:08;;;;;;;32.63;20.80;;;12.30;99.90;;;;;;5011679;28;20215;-51
2022/09/27 08:20:36;;;;;;;92.90;62.07;;;12.30;99.90;;;;;;5011785;28;20341;-51
2022/09/27 08:23:04;;;;;;;16.33;12.67;;;12.10;99.90;;;;;;5007048;28;20309;-51
2022/09/27 08:25:34;;;;;;;62.50;39.23;;;11.90;99.90;;;;;;5010459;28;20320;-52
2022/09/27 08:28:04;;;;;;;47.50;28.77;;;11.80;99.90;;;;;;5011982;28;20394;-51
2022/09/27 08:30:32;;;;;;;77.83;34.90;;;11.80;99.90;;;;;;5011199;28;20317;-50
2022/09/27 08:33:02;;;;;;;48.93;29.83;;;11.80;99.90;;;;;;5010806;28;20322;-51
2022/09/27 08:35:32;;;;;;;18.00;10.93;;;11.90;99.90;;;;;;5009797;28;20203;-50
2022/09/27 08:38:02;;;;;;;155.40;82.37;;;12.10;99.90;;;;;;5009845;28;20233;-50
2022/09/27 08:40:46;;;;;;;18.73;11.83;;;12.20;99.90;;;;;;5009597;28;20234;-51
2022/09/27 08:43:20;;;;;;;35.07;27.63;;;12.10;99.90;;;;;;5009249;28;20660;-51
2022/09/27 08:46:01;;;;;;;33.83;16.17;;;12.30;99.90;;;;;;5011127;28;20298;-50
2022/09/27 08:48:31;;;;;;;48.93;26.80;;;12.50;99.90;;;;;;5010878;28;20210;-50
2022/09/27 08:51:02;;;;;;;9.43;8.37;;;12.70;99.90;;;;;;5011022;28;20309;-50
2022/09/27 08:53:34;;;;;;;186.57;94.57;;;12.80;99.90;;;;;;5009982;28;20294;-50
2022/09/27 08:56:07;;;;;;;103.00;52.53;;;12.90;99.90;;;;;;5011174;28;20222;-50
2022/09/27 08:58:39;;;;;;;119.27;65.40;;;12.70;99.90;;;;;;5010343;28;20297;-50
2022/09/27 09:01:14;;;;;;;161.97;107.10;;;12.70;99.90;;;;;;5008956;28;20334;-50
2022/09/27 09:03:48;;;;;;;198.43;116.60;;;12.70;99.90;;;;;;5010434;28;20214;-50
2022/09/27 09:06:23;;;;;;;34.47;24.53;;;12.60;99.90;;;;;;5010427;28;20230;-50
2022/09/27 09:09:02;;;;;;;31.17;16.07;;;12.60;99.90;;;;;;5010321;28;20217;-50
2022/09/27 09:15:00;;;;;;;84.30;51.93;;;12.80;99.90;;;;;;5009713;28;20584;-51
2022/09/27 09:17:39;;;;;;;43.30;20.93;;;12.80;99.90;;;;;;5010394;28;20214;-51
2022/09/27 09:20:21;;;;;;;110.93;68.83;;;12.80;99.90;;;;;;5010356;28;20297;-50
2022/09/27 09:23:18;;;;;;;22.90;14.67;;;12.90;99.90;;;;;;5008944;28;20787;-51
2022/09/27 09:25:54;;;;;;;159.17;88.53;;;12.90;99.90;;;;;;5007231;28;20206;-52
2022/09/27 09:28:37;;;;;;;149.63;83.87;;;12.70;99.90;;;;;;5000480;28;20248;-51
2022/09/27 09:31:12;;;;;;;142.07;78.73;;;12.70;99.90;;;;;;5009271;28;20222;-51
2022/09/27 09:33:46;;;;;;;212.17;110.43;;;12.60;99.90;;;;;;5009937;28;20285;-51
2022/09/27 09:36:22;;;;;;;228.50;127.93;;;12.60;99.90;;;;;;5009719;28;20245;-50
2022/09/27 09:38:54;;;;;;;257.67;156.40;;;12.80;99.90;;;;;;5010043;28;20211;-51
2022/09/27 09:41:28;;;;;;;57.20;44.57;;;13.00;99.90;;;;;;5007890;28;20257;-51
2022/09/27 09:44:05;;;;;;;139.43;91.43;;;13.00;99.90;;;;;;5007021;28;20231;-52
2022/09/27 09:46:37;;;;;;;169.53;103.83;;;13.00;99.90;;;;;;5000967;28;20778;-51
2022/09/27 09:49:18;;;;;;;53.07;35.60;;;13.10;99.90;;;;;;4997222;28;20634;-51
2022/09/27 09:51:50;;;;;;;167.77;103.90;;;13.10;99.90;;;;;;5009431;28;20314;-51
2022/09/27 09:54:24;;;;;;;104.07;67.97;;;13.10;99.90;;;;;;5009073;28;20298;-49
2022/09/27 09:56:59;;;;;;;156.80;85.53;;;13.20;99.90;;;;;;5009743;28;20228;-51
2022/09/27 09:59:34;;;;;;;431.87;209.60;;;13.10;99.90;;;;;;5009204;28;20217;-51
2022/09/27 10:02:21;;;;;;;210.63;116.17;;;13.00;99.90;;;;;;5009009;28;20888;-51
2022/09/27 10:04:49;;;;;;;37.07;25.97;;;12.80;99.90;;;;;;5015699;28;20214;-50
2022/09/27 10:07:20;;;;;;;140.57;77.37;;;12.80;99.90;;;;;;5013475;28;20297;-51
2022/09/27 10:09:49;;;;;;;236.23;145.43;;;12.80;99.90;;;;;;5009404;28;20207;-51
2022/09/27 10:12:17;;;;;;;45.43;38.83;;;12.70;99.90;;;;;;5008942;28;20752;-51
2022/09/27 10:14:49;;;;;;;365.87;223.67;;;12.60;99.90;;;;;;5008543;28;20265;-51
2022/09/27 10:17:21;;;;;;;56.87;51.17;;;12.70;99.90;;;;;;5008294;28;20562;-51
2022/09/27 10:19:53;;;;;;;388.00;209.57;;;12.60;99.90;;;;;;5009562;28;20302;-51
2022/09/27 10:22:26;;;;;;;65.87;29.13;;;12.70;99.90;;;;;;5006336;28;20302;-50
2022/09/27 10:24:57;;;;;;;145.77;84.33;;;12.60;99.90;;;;;;4996659;28;20237;-51
2022/09/27 10:27:26;;;;;;;105.20;55.37;;;12.50;99.90;;;;;;5009031;28;20211;-51
2022/09/27 10:29:59;;;;;;;149.03;88.00;;;12.50;99.90;;;;;;4995974;28;20207;-50
2022/09/27 10:32:32;;;;;;;87.77;63.73;;;12.60;99.90;;;;;;5008237;28;20290;-51
2022/09/27 10:35:22;;;;;;;35.00;22.17;;;12.50;99.90;;;;;;5008020;28;20207;-51
2022/09/27 10:37:52;;;;;;;168.23;105.17;;;12.40;99.90;;;;;;5008486;28;20211;-51
2022/09/27 10:40:27;;;;;;;45.80;27.27;;;12.30;99.90;;;;;;5009011;28;20227;-51
2022/09/27 10:42:55;;;;;;;85.90;49.37;;;12.20;99.90;;;;;;5008142;28;20214;-50
2022/09/27 10:45:30;;;;;;;112.27;79.10;;;12.20;99.90;;;;;;5009418;28;20203;-50
2022/09/27 10:47:59;;;;;;;38.20;34.23;;;12.10;99.90;;;;;;5009721;28;20213;-51
2022/09/27 10:50:29;;;;;;;70.20;48.20;;;12.20;99.90;;;;;;5008906;28;20237;-51
2022/09/27 10:53:20;;;;;;;29.70;20.50;;;12.30;99.90;;;;;;5007559;28;20207;-51
2022/09/27 10:55:50;;;;;;;101.67;60.63;;;12.50;99.90;;;;;;5008906;28;20309;-51
2022/09/27 10:58:24;;;;;;;175.83;112.63;;;12.60;99.90;;;;;;5008806;28;20239;-51
2022/09/27 11:01:01;;;;;;;205.10;128.30;;;12.90;99.90;;;;;;5008638;28;20731;-51
2022/09/27 11:03:30;;;;;;;23.00;19.27;;;13.10;99.90;;;;;;5008254;28;20227;-51
2022/09/27 11:05:59;;;;;;;314.67;175.80;;;13.00;99.90;;;;;;5008828;28;20253;-50
2022/09/27 11:08:32;;;;;;;220.07;135.17;;;13.00;99.90;;;;;;5008898;28;20217;-51
2022/09/27 11:11:05;;;;;;;32.27;28.67;;;13.20;99.90;;;;;;5008344;28;20305;-51
2022/09/27 11:13:34;;;;;;;64.10;41.03;;;13.20;99.90;;;;;;4999432;28;20289;-51
2022/09/27 11:16:19;;;;;;;24.80;20.07;;;13.10;99.90;;;;;;5009361;28;20639;-50
2022/09/27 11:18:57;;;;;;;155.53;96.20;;;13.30;99.90;;;;;;5007961;28;20206;-50
2022/09/27 11:21:35;;;;;;;302.10;170.17;;;13.10;99.90;;;;;;5009478;28;20707;-50
2022/09/27 11:24:27;;;;;;;98.37;68.57;;;12.90;99.90;;;;;;5010724;28;20214;-51
2022/09/27 11:27:04;;;;;;;24.13;18.23;;;12.70;99.90;;;;;;5002610;28;20290;-51
2022/09/27 11:29:45;;;;;;;360.43;207.73;;;12.40;99.90;;;;;;5009915;28;20297;-51
2022/09/27 11:32:29;;;;;;;288.60;180.43;;;12.30;99.90;;;;;;5011780;28;20226;-51
2022/09/27 11:35:21;;;;;;;177.00;87.13;;;12.20;99.90;;;;;;5009125;28;20207;-51
2022/09/27 11:37:59;;;;;;;17.93;15.57;;;12.20;99.90;;;;;;5007459;28;20694;-51
2022/09/27 11:40:35;;;;;;;80.03;43.70;;;12.40;99.90;;;;;;5011005;28;20237;-51
2022/09/27 11:43:22;;;;;;;24.47;21.87;;;12.60;99.90;;;;;;5014322;28;20214;-51
2022/09/27 11:45:59;;;;;;;30.77;27.23;;;12.90;99.90;;;;;;5013240;28;20241;-50
2022/09/27 11:49:09;;;;;;;48.10;32.67;;;13.00;99.90;;;;;;5012114;28;20207;-50
2022/09/27 11:52:05;;;;;;;292.63;188.17;;;12.90;99.90;;;;;;5011400;28;20704;-51
2022/09/27 11:55:03;;;;;;;16.90;15.37;;;12.90;99.90;;;;;;5005649;28;20286;-51
2022/09/27 11:57:36;;;;;;;9.83;8.83;;;12.90;99.90;;;;;;5011060;28;20751;-51
2022/09/27 12:00:19;;;;;;;89.60;70.23;;;12.80;99.90;;;;;;5011797;28;20289;-51
2022/09/27 12:03:24;;;;;;;64.90;42.30;;;12.80;99.90;;;;;;5011266;28;20234;-51
2022/09/27 12:06:05;;;;;;;49.63;43.53;;;12.60;99.90;;;;;;5011257;28;20578;-51
2022/09/27 12:08:58;;;;;;;59.77;32.13;;;12.60;99.90;;;;;;5011719;28;20211;-51
2022/09/27 12:11:30;;;;;;;17.97;16.20;;;12.70;99.90;;;;;;5009801;28;20734;-51
2022/09/27 12:14:02;;;;;;;64.27;41.87;;;12.70;99.90;;;;;;5010192;28;20203;-52
2022/09/27 12:16:32;;;;;;;198.83;124.00;;;12.80;99.90;;;;;;5011313;28;20206;-51
2022/09/27 12:19:03;;;;;;;128.73;86.97;;;12.80;99.90;;;;;;5011596;28;20290;-51
2022/09/27 12:21:34;;;;;;;149.73;105.77;;;12.90;99.90;;;;;;5011119;28;20783;-51
2022/09/27 12:24:03;;;;;;;95.90;75.13;;;12.90;99.90;;;;;;5010490;28;20623;-51
2022/09/27 12:26:37;;;;;;;57.47;51.17;;;12.80;99.90;;;;;;5010799;28;20246;-51
2022/09/27 12:29:12;;;;;;;51.53;39.83;;;12.80;99.90;;;;;;5010742;28;20207;-50
2022/09/27 12:31:45;;;;;;;99.87;63.40;;;12.80;99.90;;;;;;5010498;28;20292;-51
2022/09/27 12:34:18;;;;;;;62.30;39.30;;;12.90;99.90;;;;;;5009996;28;20226;-50
2022/09/27 12:36:56;;;;;;;144.10;95.40;;;12.90;99.90;;;;;;5008564;28;20214;-50
2022/09/27 12:39:28;;;;;;;32.07;24.60;;;12.80;99.90;;;;;;5009942;28;20214;-50
2022/09/27 12:42:04;;;;;;;41.37;37.83;;;12.70;99.90;;;;;;5010901;28;20223;-50
2022/09/27 12:44:39;;;;;;;104.67;67.10;;;12.60;99.90;;;;;;4993937;28;20318;-50
2022/09/27 12:47:15;;;;;;;25.63;23.00;;;12.50;99.90;;;;;;5010481;28;20221;-51
2022/09/27 12:49:53;;;;;;;16.63;12.13;;;12.60;99.90;;;;;;5010922;28;20577;-50
2022/09/27 12:52:33;;;;;;;12.00;10.77;;;12.70;99.90;;;;;;5004640;28;20208;-50
2022/09/27 12:55:18;;;;;;;56.50;51.93;;;12.90;99.90;;;;;;4996768;28;20241;-51
2022/09/27 12:57:58;;;;;;;42.40;28.13;;;13.10;99.90;;;;;;5010751;28;20206;-51
2022/09/27 13:00:30;;;;;;;31.03;23.30;;;13.00;99.90;;;;;;5010838;28;20321;-51
2022/09/27 13:03:26;;;;;;;50.37;27.13;;;13.20;99.90;;;;;;5010458;28;20214;-51
2022/09/27 13:06:33;;;;;;;32.57;29.73;;;13.40;99.90;;;;;;5010893;28;20305;-50